createdAt,value
2018-02-20T00:00:25.498Z,101137.83
2018-02-20T00:02:53.806Z,101135.19
2018-02-20T00:05:22.226Z,101135.20
2018-02-20T00:07:50.655Z,101132.59
2018-02-20T00:10:18.986Z,101122.56
2018-02-20T00:12:47.355Z,101130.02
2018-02-20T00:15:15.697Z,101132.63
2018-02-20T00:17:44.022Z,101127.81
2018-02-20T00:20:12.386Z,101127.83
2018-02-20T00:22:40.714Z,101124.77
2018-02-20T00:25:09.064Z,101120.38
2018-02-20T00:27:37.391Z,101116.45
2018-02-20T00:30:05.738Z,101119.50
2018-02-20T00:32:34.061Z,101119.97
2018-02-20T00:35:02.442Z,101119.50
2018-02-20T00:37:30.825Z,101117.34
2018-02-20T00:39:59.198Z,101120.86
2018-02-20T00:42:27.595Z,101111.23
2018-02-20T00:44:55.954Z,101103.00
2018-02-20T00:47:24.334Z,101107.37
2018-02-20T00:49:52.711Z,101105.19
2018-02-20T00:52:21.085Z,101106.07
2018-02-20T00:54:49.434Z,101107.36
2018-02-20T00:57:17.846Z,101100.41
2018-02-20T00:59:46.193Z,101102.58
2018-02-20T01:02:14.601Z,101100.84
2018-02-20T01:04:42.974Z,101107.36
2018-02-20T01:07:11.298Z,101102.15
2018-02-20T01:09:39.726Z,101096.47
2018-02-20T01:12:08.102Z,101097.34
2018-02-20T01:14:36.446Z,101097.79
2018-02-20T01:17:04.860Z,101094.28
2018-02-20T01:19:33.205Z,101093.84
2018-02-20T01:22:01.530Z,101097.31
2018-02-20T01:24:29.874Z,101089.50
2018-02-20T01:26:58.198Z,101089.06
2018-02-20T01:29:26.642Z,101084.70
2018-02-20T01:31:54.970Z,101085.14
2018-02-20T01:34:23.393Z,101084.70
2018-02-20T01:36:51.722Z,101087.33
2018-02-20T01:39:20.153Z,101095.61
2018-02-20T01:41:48.526Z,101086.88
2018-02-20T01:44:16.906Z,101091.67
2018-02-20T01:46:45.281Z,101093.87
2018-02-20T01:49:13.634Z,101097.77
2018-02-20T01:51:41.962Z,101095.52
2018-02-20T01:54:10.305Z,101102.10
2018-02-20T01:56:38.690Z,101099.48
2018-02-20T01:59:07.066Z,101109.04
2018-02-20T02:01:35.418Z,101099.88
2018-02-20T02:04:03.822Z,101107.20
2018-02-20T02:06:32.198Z,101112.38
2018-02-20T02:09:00.521Z,101117.14
2018-02-20T02:11:28.955Z,101119.77
2018-02-20T02:13:57.353Z,101114.55
2018-02-20T02:16:25.706Z,101118.88
2018-02-20T02:18:54.038Z,101119.34
2018-02-20T02:21:22.466Z,101125.42
2018-02-20T02:23:50.863Z,101126.70
2018-02-20T02:26:19.218Z,101129.72
2018-02-20T02:28:47.598Z,101126.18
2018-02-20T02:31:15.958Z,101118.74
2018-02-20T02:33:44.351Z,101121.39
2018-02-20T02:36:12.694Z,101122.27
2018-02-20T02:38:41.014Z,101120.16
2018-02-20T02:41:09.383Z,101125.45
2018-02-20T02:43:37.754Z,101117.63
2018-02-20T02:46:06.134Z,101123.72
2018-02-20T02:48:34.511Z,101118.49
2018-02-20T02:51:02.857Z,101121.15
2018-02-20T02:53:31.187Z,101129.86
2018-02-20T02:55:59.529Z,101126.80
2018-02-20T02:58:27.914Z,101119.02
2018-02-20T03:00:56.493Z,101123.81
2018-02-20T03:03:24.776Z,101121.22
2018-02-20T03:05:53.118Z,101120.77
2018-02-20T03:08:21.442Z,101118.16
2018-02-20T03:10:49.802Z,101121.22
2018-02-20T03:13:18.178Z,101117.29
2018-02-20T03:15:46.522Z,101119.89
2018-02-20T03:18:14.846Z,101122.06
2018-02-20T03:20:43.210Z,101117.75
2018-02-20T03:23:11.534Z,101119.46
2018-02-20T03:25:39.966Z,101120.33
2018-02-20T03:28:08.303Z,101116.43
2018-02-20T03:30:36.719Z,101120.78
2018-02-20T03:33:05.041Z,101115.58
2018-02-20T03:35:33.387Z,101121.20
2018-02-20T03:38:01.803Z,101113.39
2018-02-20T03:40:30.131Z,101119.88
2018-02-20T03:42:58.462Z,101117.19
2018-02-20T03:45:26.809Z,101116.26
2018-02-20T03:47:55.154Z,101119.75
2018-02-20T03:50:23.506Z,101115.84
2018-02-20T03:52:51.826Z,101115.88
2018-02-20T03:55:20.151Z,101120.17
2018-02-20T03:57:48.557Z,101119.28
2018-02-20T04:00:16.938Z,101126.25
2018-02-20T04:02:45.314Z,101119.72
2018-02-20T04:05:13.694Z,101122.20
2018-02-20T04:07:42.040Z,101129.58
2018-02-20T04:10:10.437Z,101128.64
2018-02-20T04:12:38.827Z,101128.28
2018-02-20T04:15:07.156Z,101124.36
2018-02-20T04:17:35.508Z,101125.56
2018-02-20T04:20:03.837Z,101123.81
2018-02-20T04:22:32.230Z,101120.86
2018-02-20T04:25:00.550Z,101119.08
2018-02-20T04:27:28.986Z,101124.77
2018-02-20T04:29:57.362Z,101125.67
2018-02-20T04:32:25.705Z,101125.52
2018-02-20T04:34:54.138Z,101127.27
2018-02-20T04:37:22.598Z,101124.09
2018-02-20T04:39:50.981Z,101122.77
2018-02-20T04:42:19.326Z,101120.61
2018-02-20T04:44:47.662Z,101121.48
2018-02-20T04:47:16.110Z,101127.17
2018-02-20T04:49:44.446Z,101122.88
2018-02-20T04:52:12.857Z,101128.92
2018-02-20T04:54:41.241Z,101130.98
2018-02-20T04:57:09.590Z,101125.67
2018-02-20T04:59:38.003Z,101131.30
2018-02-20T05:02:06.360Z,101134.38
2018-02-20T05:04:34.687Z,101139.13
2018-02-20T05:07:03.126Z,101139.98
2018-02-20T05:09:31.510Z,101136.91
2018-02-20T05:11:59.853Z,101142.14
2018-02-20T05:14:28.253Z,101141.28
2018-02-20T05:16:56.637Z,101141.30
2018-02-20T05:19:25.010Z,101141.71
2018-02-20T05:21:53.390Z,101147.72
2018-02-20T05:24:21.726Z,101140.64
2018-02-20T05:26:50.141Z,101141.08
2018-02-20T05:29:18.473Z,101140.20
2018-02-20T05:31:46.830Z,101144.67
2018-02-20T05:34:15.169Z,101148.06
2018-02-20T05:36:43.522Z,101144.12
2018-02-20T05:39:11.854Z,101144.87
2018-02-20T05:41:40.305Z,101143.19
2018-02-20T05:44:08.682Z,101144.70
2018-02-20T05:46:37.986Z,101147.38
2018-02-20T05:49:06.322Z,101146.16
2018-02-20T05:51:34.673Z,101149.68
2018-02-20T05:54:03.114Z,101155.70
2018-02-20T05:56:31.500Z,101154.46
2018-02-20T05:58:59.848Z,101158.34
2018-02-20T06:01:28.211Z,101156.69
2018-02-20T06:03:56.623Z,101153.64
2018-02-20T06:06:25.004Z,101156.24
2018-02-20T06:08:53.378Z,101160.16
2018-02-20T06:11:21.719Z,101156.62
2018-02-20T06:13:50.079Z,101157.90
2018-02-20T06:16:18.403Z,101161.48
2018-02-20T06:18:46.762Z,101165.94
2018-02-20T06:21:15.163Z,101172.09
2018-02-20T06:23:43.514Z,101177.80
2018-02-20T06:26:12.802Z,101169.08
2018-02-20T06:28:41.153Z,101172.61
2018-02-20T06:31:09.520Z,101176.13
2018-02-20T06:33:38.075Z,101177.05
2018-02-20T06:36:07.346Z,101169.16
2018-02-20T06:38:35.854Z,101181.31
2018-02-20T06:41:04.186Z,101179.11
2018-02-20T06:43:32.621Z,101175.59
2018-02-20T06:46:01.869Z,101179.83
2018-02-20T06:48:30.213Z,101174.94
2018-02-20T06:50:58.542Z,101177.44
2018-02-20T06:53:26.898Z,101176.07
2018-02-20T06:55:55.221Z,101180.35
2018-02-20T06:58:23.579Z,101180.22
2018-02-20T07:00:51.918Z,101179.19
2018-02-20T07:03:20.279Z,101183.93
2018-02-20T07:05:48.606Z,101190.38
2018-02-20T07:08:17.750Z,101187.73
2018-02-20T07:10:46.078Z,101194.31
2018-02-20T07:13:14.438Z,101194.11
2018-02-20T07:15:42.774Z,101197.92
2018-02-20T07:18:11.125Z,101201.30
2018-02-20T07:20:39.457Z,101195.73
2018-02-20T07:23:07.820Z,101196.16
2018-02-20T07:25:36.155Z,101199.30
2018-02-20T07:28:04.511Z,101198.89
2018-02-20T07:30:32.852Z,101202.72
2018-02-20T07:33:01.201Z,101203.30
2018-02-20T07:35:29.537Z,101203.78
2018-02-20T07:37:57.894Z,101205.10
2018-02-20T07:40:26.228Z,101203.86
2018-02-20T07:42:54.578Z,101210.41
2018-02-20T07:45:22.910Z,101210.44
2018-02-20T07:47:51.270Z,101208.77
2018-02-20T07:50:19.610Z,101211.02
2018-02-20T07:52:47.962Z,101208.04
2018-02-20T07:55:16.298Z,101211.86
2018-02-20T07:57:44.650Z,101209.66
2018-02-20T08:00:12.990Z,101218.00
2018-02-20T08:02:41.329Z,101214.10
2018-02-20T08:05:09.694Z,101208.06
2018-02-20T08:07:38.030Z,101213.72
2018-02-20T08:10:06.958Z,101214.53
2018-02-20T08:12:35.310Z,101212.40
2018-02-20T08:15:03.669Z,101215.45
2018-02-20T08:17:32.001Z,101218.10
2018-02-20T08:20:00.362Z,101221.19
2018-02-20T08:22:28.693Z,101212.95
2018-02-20T08:24:57.061Z,101215.20
2018-02-20T08:27:25.437Z,101218.66
2018-02-20T08:29:53.778Z,101216.88
2018-02-20T08:32:22.131Z,101214.75
2018-02-20T08:34:50.483Z,101217.42
2018-02-20T08:37:18.841Z,101212.24
2018-02-20T08:39:47.197Z,101211.38
2018-02-20T08:42:15.534Z,101214.47
2018-02-20T08:44:43.881Z,101215.39
2018-02-20T08:47:12.211Z,101205.34
2018-02-20T08:49:41.454Z,101207.56
2018-02-20T08:52:09.781Z,101206.70
2018-02-20T08:54:38.131Z,101204.58
2018-02-20T08:57:06.461Z,101196.77
2018-02-20T08:59:34.822Z,101205.55
2018-02-20T09:02:03.154Z,101205.53
2018-02-20T09:04:31.507Z,101200.77
2018-02-20T09:06:59.829Z,101202.54
2018-02-20T09:09:28.182Z,101208.67
2018-02-20T09:11:56.511Z,101202.13
2018-02-20T09:14:24.854Z,101202.61
2018-02-20T09:16:53.186Z,101199.56
2018-02-20T09:19:21.538Z,101200.91
2018-02-20T09:21:49.866Z,101192.67
2018-02-20T09:24:18.215Z,101196.98
2018-02-20T09:26:46.543Z,101185.72
2018-02-20T09:29:15.790Z,101187.91
2018-02-20T09:31:44.136Z,101190.97
2018-02-20T09:34:12.469Z,101187.48
2018-02-20T09:36:40.828Z,101188.38
2018-02-20T09:39:09.145Z,101192.73
2018-02-20T09:41:37.470Z,101188.42
2018-02-20T09:44:05.817Z,101194.52
2018-02-20T09:46:34.152Z,101192.78
2018-02-20T09:49:03.426Z,101194.10
2018-02-20T09:51:31.759Z,101187.13
2018-02-20T09:54:00.103Z,101193.22
2018-02-20T09:56:28.443Z,101188.44
2018-02-20T09:58:56.786Z,101191.49
2018-02-20T10:01:25.110Z,101195.42
2018-02-20T10:03:53.470Z,101191.47
2018-02-20T10:06:21.798Z,101199.32
2018-02-20T10:08:50.947Z,101200.20
2018-02-20T10:11:19.290Z,101198.41
2018-02-20T10:13:47.623Z,101201.02
2018-02-20T10:16:15.970Z,101194.05
2018-02-20T10:18:44.298Z,101199.26
2018-02-20T10:21:12.657Z,101197.06
2018-02-20T10:23:40.981Z,101199.21
2018-02-20T10:26:09.336Z,101203.16
2018-02-20T10:28:37.662Z,101206.66
2018-02-20T10:31:06.018Z,101207.11
2018-02-20T10:33:34.337Z,101206.22
2018-02-20T10:36:02.695Z,101207.06
2018-02-20T10:38:31.022Z,101206.59
2018-02-20T10:40:59.446Z,101204.84
2018-02-20T10:43:27.778Z,101212.68
2018-02-20T10:45:56.139Z,101208.75
2018-02-20T10:48:25.300Z,101216.17
2018-02-20T10:50:53.642Z,101217.48
2018-02-20T10:53:21.977Z,101220.54
2018-02-20T10:55:51.402Z,101219.20
2018-02-20T10:58:19.746Z,101215.70
2018-02-20T11:00:48.121Z,101214.78
2018-02-20T11:03:16.455Z,101212.61
2018-02-20T11:05:44.850Z,101213.45
2018-02-20T11:08:13.186Z,101202.95
2018-02-20T11:10:41.545Z,101198.08
2018-02-20T11:13:09.878Z,101201.14
2018-02-20T11:15:39.067Z,101199.36
2018-02-20T11:18:07.395Z,101201.58
2018-02-20T11:20:35.746Z,101198.05
2018-02-20T11:23:04.070Z,101203.30
2018-02-20T11:25:32.509Z,101196.28
2018-02-20T11:28:00.829Z,101204.17
2018-02-20T11:30:29.183Z,101201.12
2018-02-20T11:32:57.510Z,101200.62
2018-02-20T11:35:25.874Z,101202.29
2018-02-20T11:37:54.207Z,101201.41
2018-02-20T11:40:22.554Z,101204.89
2018-02-20T11:42:50.882Z,101207.09
2018-02-20T11:45:19.234Z,101206.61
2018-02-20T11:47:47.557Z,101205.24
2018-02-20T11:50:15.906Z,101204.76
2018-02-20T11:52:44.240Z,101200.76
2018-02-20T11:55:12.590Z,101202.94
2018-02-20T11:57:40.917Z,101199.48
2018-02-20T12:00:09.275Z,101203.35
2018-02-20T12:02:37.606Z,101202.41
2018-02-20T12:05:05.954Z,101207.61
2018-02-20T12:07:35.094Z,101206.31
2018-02-20T12:10:03.447Z,101207.17
2018-02-20T12:12:31.774Z,101206.73
2018-02-20T12:15:00.099Z,101210.20
2018-02-20T12:17:28.514Z,101204.45
2018-02-20T12:19:56.830Z,101201.81
2018-02-20T12:22:25.175Z,101205.75
2018-02-20T12:24:53.507Z,101202.10
2018-02-20T12:27:22.026Z,101196.06
2018-02-20T12:29:50.362Z,101194.19
2018-02-20T12:32:18.708Z,101191.91
2018-02-20T12:34:47.029Z,101194.51
2018-02-20T12:37:15.386Z,101194.51
2018-02-20T12:39:43.730Z,101195.38
2018-02-20T12:42:12.082Z,101196.66
2018-02-20T12:44:40.407Z,101188.41
2018-02-20T12:47:09.762Z,101189.28
2018-02-20T12:49:38.085Z,101197.13
2018-02-20T12:52:06.438Z,101201.05
2018-02-20T12:54:34.769Z,101189.25
2018-02-20T12:57:03.114Z,101201.04
2018-02-20T12:59:31.439Z,101196.63
2018-02-20T13:01:59.792Z,101188.38
2018-02-20T13:04:28.123Z,101197.03
2018-02-20T13:06:56.482Z,101201.07
2018-02-20T13:09:24.814Z,101204.04
2018-02-20T13:11:53.162Z,101204.17
2018-02-20T13:14:21.498Z,101204.61
2018-02-20T13:16:49.854Z,101200.20
2018-02-20T13:19:18.178Z,101200.88
2018-02-20T13:21:46.534Z,101201.55
2018-02-20T13:24:14.862Z,101206.21
2018-02-20T13:26:44.111Z,101205.30
2018-02-20T13:29:12.434Z,101205.66
2018-02-20T13:31:40.786Z,101205.73
2018-02-20T13:34:09.126Z,101204.13
2018-02-20T13:36:38.463Z,101208.72
2018-02-20T13:39:06.792Z,101212.48
2018-02-20T13:41:35.136Z,101210.45
2018-02-20T13:44:03.475Z,101214.47
2018-02-20T13:46:31.822Z,101216.66
2018-02-20T13:49:00.150Z,101214.94
2018-02-20T13:51:28.503Z,101218.77
2018-02-20T13:53:56.826Z,101216.83
2018-02-20T13:56:25.178Z,101215.33
2018-02-20T13:58:53.502Z,101217.08
2018-02-20T14:01:21.854Z,101217.98
2018-02-20T14:03:50.270Z,101214.48
2018-02-20T14:06:18.603Z,101214.48
2018-02-20T14:08:46.926Z,101210.11
2018-02-20T14:11:15.278Z,101208.42
2018-02-20T14:13:43.610Z,101211.55
2018-02-20T14:16:11.964Z,101210.36
2018-02-20T14:18:40.333Z,101204.70
2018-02-20T14:21:08.794Z,101212.14
2018-02-20T14:23:37.142Z,101210.80
2018-02-20T14:26:06.406Z,101215.98
2018-02-20T14:28:34.953Z,101207.67
2018-02-20T14:31:03.311Z,101209.42
2018-02-20T14:33:31.873Z,101209.36
2018-02-20T14:36:01.158Z,101211.47
2018-02-20T14:38:29.511Z,101209.31
2018-02-20T14:40:57.846Z,101212.27
2018-02-20T14:43:26.194Z,101220.27
2018-02-20T14:45:55.410Z,101222.94
2018-02-20T14:48:24.893Z,101219.47
2018-02-20T14:50:53.205Z,101222.49
2018-02-20T14:53:21.563Z,101221.55
2018-02-20T14:55:54.825Z,101220.70
2018-02-20T14:58:25.559Z,101221.66
2018-02-20T15:00:53.869Z,101222.12
2018-02-20T15:03:22.433Z,101218.19
2018-02-20T15:05:51.082Z,101215.08
2018-02-20T15:08:19.432Z,101218.11
2018-02-20T15:10:47.762Z,101217.16
2018-02-20T15:13:16.110Z,101206.76
2018-02-20T15:15:44.434Z,101212.53
2018-02-20T15:18:12.806Z,101209.94
2018-02-20T15:20:41.137Z,101216.64
2018-02-20T15:23:09.747Z,101218.45
2018-02-20T15:25:38.108Z,101225.94
2018-02-20T15:28:08.671Z,101228.22
2018-02-20T15:30:43.647Z,101222.99
2018-02-20T15:33:11.954Z,101228.25
2018-02-20T15:35:42.915Z,101226.58
2018-02-20T15:38:11.285Z,101229.21
2018-02-20T15:40:39.615Z,101234.02
2018-02-20T15:43:07.979Z,101231.31
2018-02-20T15:45:36.306Z,101237.00
2018-02-20T15:48:05.059Z,101241.06
2018-02-20T15:50:33.478Z,101245.87
2018-02-20T15:53:01.860Z,101238.95
2018-02-20T15:55:30.234Z,101244.67
2018-02-20T15:57:58.880Z,101248.14
2018-02-20T16:00:27.311Z,101243.84
2018-02-20T16:02:55.834Z,101241.21
2018-02-20T16:05:24.175Z,101239.18
2018-02-20T16:07:52.531Z,101247.53
2018-02-20T16:10:20.854Z,101249.72
2018-02-20T16:12:49.204Z,101257.18
2018-02-20T16:15:17.537Z,101255.48
2018-02-20T16:17:45.942Z,101261.17
2018-02-20T16:20:14.370Z,101265.13
2018-02-20T16:22:42.797Z,101265.95
2018-02-20T16:25:11.125Z,101268.59
2018-02-20T16:27:39.555Z,101280.83
2018-02-20T16:30:07.922Z,101283.94
2018-02-20T16:32:36.279Z,101284.34
2018-02-20T16:35:04.680Z,101294.77
2018-02-20T16:37:33.014Z,101287.33
2018-02-20T16:40:01.384Z,101290.86
2018-02-20T16:42:29.711Z,101284.70
2018-02-20T16:44:58.059Z,101289.62
2018-02-20T16:47:26.482Z,101297.91
2018-02-20T16:49:54.835Z,101296.14
2018-02-20T16:52:23.230Z,101296.14
2018-02-20T16:54:51.823Z,101297.48
2018-02-20T16:57:20.176Z,101298.30
2018-02-20T16:59:48.542Z,101300.51
2018-02-20T17:02:16.934Z,101304.00
2018-02-20T17:04:45.309Z,101312.00
2018-02-20T17:07:13.689Z,101317.61
2018-02-20T17:09:42.064Z,101318.63
2018-02-20T17:12:10.407Z,101324.27
2018-02-20T17:14:38.838Z,101326.48
2018-02-20T17:17:07.186Z,101333.06
2018-02-20T17:19:35.578Z,101328.67
2018-02-20T17:22:03.910Z,101328.27
2018-02-20T17:24:32.454Z,101338.75
2018-02-20T17:27:00.915Z,101340.09
2018-02-20T17:29:29.432Z,101339.72
2018-02-20T17:31:57.870Z,101340.15
2018-02-20T17:34:26.245Z,101343.65
2018-02-20T17:36:54.584Z,101341.94
2018-02-20T17:39:22.933Z,101338.88
2018-02-20T17:41:51.385Z,101346.28
2018-02-20T17:44:19.743Z,101350.23
2018-02-20T17:46:48.138Z,101352.41
2018-02-20T17:49:16.499Z,101361.59
2018-02-20T17:51:44.828Z,101363.33
2018-02-20T17:54:13.258Z,101369.45
2018-02-20T17:56:41.667Z,101380.37
2018-02-20T17:59:10.035Z,101380.80
2018-02-20T18:01:38.353Z,101387.78
2018-02-20T18:04:06.774Z,101396.53
2018-02-20T18:06:35.160Z,101396.08
2018-02-20T18:09:03.514Z,101404.80
2018-02-20T18:11:31.836Z,101408.73
2018-02-20T18:14:00.387Z,101408.75
2018-02-20T18:16:29.651Z,101412.67
2018-02-20T18:18:58.070Z,101412.22
2018-02-20T18:21:26.406Z,101408.31
2018-02-20T18:23:54.758Z,101419.65
2018-02-20T18:26:24.119Z,101428.38
2018-02-20T18:28:52.475Z,101427.09
2018-02-20T18:31:20.816Z,101430.14
2018-02-20T18:33:49.242Z,101435.34
2018-02-20T18:36:17.632Z,101438.84
2018-02-20T18:38:45.991Z,101432.75
2018-02-20T18:41:14.317Z,101437.13
2018-02-20T18:43:42.754Z,101432.32
2018-02-20T18:46:11.114Z,101434.06
2018-02-20T18:48:39.598Z,101437.13
2018-02-20T18:51:08.027Z,101435.83
2018-02-20T18:53:36.370Z,101438.86
2018-02-20T18:56:06.623Z,101448.03
2018-02-20T18:58:38.579Z,101450.20
2018-02-20T19:01:10.604Z,101461.52
2018-02-20T19:03:38.925Z,101461.96
2018-02-20T19:06:08.266Z,101461.08
2018-02-20T19:08:36.658Z,101464.16
2018-02-20T19:11:05.045Z,101468.55
2018-02-20T19:13:33.383Z,101464.20
2018-02-20T19:16:02.716Z,101466.34
2018-02-20T19:18:31.047Z,101468.05
2018-02-20T19:20:59.409Z,101470.68
2018-02-20T19:23:27.734Z,101475.06
2018-02-20T19:25:57.033Z,101475.47
2018-02-20T19:28:25.369Z,101480.23
2018-02-20T19:30:53.806Z,101488.05
2018-02-20T19:33:22.182Z,101484.08
2018-02-20T19:35:51.162Z,101495.01
2018-02-20T19:38:19.503Z,101491.19
2018-02-20T19:40:47.930Z,101498.59
2018-02-20T19:43:16.962Z,101499.04
2018-02-20T19:45:45.315Z,101491.09
2018-02-20T19:48:13.674Z,101495.88
2018-02-20T19:50:42.052Z,101497.59
2018-02-20T19:53:22.162Z,101500.69
2018-02-20T19:55:53.875Z,101498.95
2018-02-20T19:58:22.239Z,101500.75
2018-02-20T20:00:50.594Z,101507.30
2018-02-20T20:03:18.971Z,101509.06
2018-02-20T20:05:47.371Z,101504.69
2018-02-20T20:08:15.702Z,101506.83
2018-02-20T20:10:44.295Z,101508.13
2018-02-20T20:13:12.626Z,101504.63
2018-02-20T20:15:41.083Z,101508.97
2018-02-20T20:18:09.436Z,101516.38
2018-02-20T20:20:37.847Z,101518.95
2018-02-20T20:23:06.213Z,101511.00
2018-02-20T20:25:34.590Z,101514.67
2018-02-20T20:28:02.953Z,101520.16
2018-02-20T20:30:31.966Z,101512.83
2018-02-20T20:33:00.307Z,101516.80
2018-02-20T20:35:28.717Z,101517.19
2018-02-20T20:37:57.054Z,101515.09
2018-02-20T20:40:25.414Z,101509.90
2018-02-20T20:42:53.846Z,101519.93
2018-02-20T20:45:22.207Z,101521.80
2018-02-20T20:47:50.605Z,101523.15
2018-02-20T20:50:19.771Z,101526.23
2018-02-20T20:52:48.106Z,101530.19
2018-02-20T20:55:16.483Z,101531.51
2018-02-20T20:57:44.826Z,101538.88
2018-02-20T21:00:13.490Z,101536.67
2018-02-20T21:02:41.825Z,101535.73
2018-02-20T21:05:10.269Z,101541.35
2018-02-20T21:07:38.602Z,101541.19
2018-02-20T21:10:07.510Z,101549.41
2018-02-20T21:12:35.914Z,101542.06
2018-02-20T21:15:04.341Z,101548.09
2018-02-20T21:17:32.770Z,101551.47
2018-02-20T21:20:01.147Z,101555.05
2018-02-20T21:22:29.521Z,101548.92
2018-02-20T21:24:58.618Z,101550.94
2018-02-20T21:27:26.978Z,101547.36
2018-02-20T21:29:55.320Z,101556.55
2018-02-20T21:32:23.758Z,101552.19
2018-02-20T21:34:52.082Z,101558.98
2018-02-20T21:37:20.454Z,101560.20
2018-02-20T21:39:48.874Z,101561.11
2018-02-20T21:42:17.266Z,101563.43
2018-02-20T21:44:45.643Z,101568.77
2018-02-20T21:47:13.999Z,101570.06
2018-02-20T21:49:42.334Z,101578.70
2018-02-20T21:52:11.379Z,101580.91
2018-02-20T21:54:39.714Z,101587.91
2018-02-20T21:57:08.078Z,101585.73
2018-02-20T21:59:36.410Z,101587.52
2018-02-20T22:02:04.771Z,101589.70
2018-02-20T22:04:33.110Z,101598.83
2018-02-20T22:07:01.474Z,101602.30
2018-02-20T22:09:29.854Z,101607.01
2018-02-20T22:11:58.341Z,101603.91
2018-02-20T22:14:26.682Z,101605.23
2018-02-20T22:16:55.030Z,101605.70
2018-02-20T22:19:23.361Z,101606.98
2018-02-20T22:21:51.802Z,101623.45
2018-02-20T22:24:20.215Z,101623.48
2018-02-20T22:26:48.662Z,101622.63
2018-02-20T22:29:16.994Z,101623.05
2018-02-20T22:31:45.428Z,101621.73
2018-02-20T22:34:13.794Z,101625.66
2018-02-20T22:36:42.166Z,101620.81
2018-02-20T22:39:10.494Z,101621.24
2018-02-20T22:41:38.841Z,101624.69
2018-02-20T22:44:07.178Z,101627.30
2018-02-20T22:46:35.538Z,101626.41
2018-02-20T22:49:03.957Z,101628.14
2018-02-20T22:51:32.331Z,101633.34
2018-02-20T22:54:00.658Z,101631.52
2018-02-20T22:56:29.030Z,101637.05
2018-02-20T22:58:57.385Z,101650.98
2018-02-20T23:01:25.730Z,101658.53
2018-02-20T23:03:54.072Z,101664.88
2018-02-20T23:06:22.439Z,101671.59
2018-02-20T23:08:50.809Z,101675.10
2018-02-20T23:14:22.951Z,101677.53
2018-02-20T23:16:51.302Z,101674.56
2018-02-20T23:19:19.684Z,101684.13
2018-02-20T23:21:48.062Z,101678.75
2018-02-20T23:24:16.466Z,101688.16
2018-02-20T23:26:44.850Z,101687.36
2018-02-20T23:29:13.217Z,101682.98
2018-02-20T23:31:41.570Z,101679.17
2018-02-20T23:34:09.971Z,101668.39
2018-02-20T23:36:38.343Z,101667.09
2018-02-20T23:39:06.729Z,101667.48
2018-02-20T23:41:35.108Z,101660.13
2018-02-20T23:44:03.437Z,101669.35
2018-02-20T23:46:31.762Z,101672.02
2018-02-20T23:49:00.138Z,101677.91
2018-02-20T23:51:34.106Z,101683.33
2018-02-20T23:54:02.461Z,101687.28
2018-02-20T23:56:30.894Z,101691.11
2018-02-20T23:58:59.278Z,101698.73
